Al Wafae — CNA4682 — position and weather

sailwx.info

Track history (hours):
 
Tides and Currents Weather Stations Pressure Air Temp Water Temp Dewpoint Dewpoint Depression Visibility Wind Speed Wind Dir Waves Ship Positions

Al Wafae

Last reported at 2018-Jan-04 22:36 UTC. Time now 2018-Feb-18 01:15 UTC.
Position N 24°25' W 015°43'.
Warning: this ship's position is 44 days out of date.

Length 55 m; draft 5.5 m.

Type: Fishing. MMSI: 242135100.

Date/timePositionNaut miles runAvg speedWind from/ knotsBaromVisibWave heightAir tempDewpointWater temp
2018-Jan-04 22:36N 24°25' W 015°43'0 4.8
2018-Jan-04 22:30N 24°25' W 015°43'3 6.7
2018-Jan-04 21:59N 24°21' W 015°44'1 2.5
2018-Jan-04 21:25N 24°20' W 015°44'18 4.5
2018-Jan-04 17:32N 24°32' W 015°30'4 4.9
2018-Jan-04 16:44N 24°35' W 015°27'1 5.0
2018-Jan-04 16:30N 24°36' W 015°27'1 1.9
2018-Jan-04 15:59N 24°37' W 015°28'65 5.1
2018-Jan-04 03:10N 23°40' W 016°03'53 1.3
2018-Jan-02 10:12N 24°28' W 015°39'2 4.3
2018-Jan-02 09:46N 24°27' W 015°40'2 0.4
2018-Jan-02 04:27N 24°25' W 015°40'1 2.7
2018-Jan-02 03:57N 24°26' W 015°40'  
Track history (hours):
 
Tides and Currents Weather Stations Pressure Air Temp Water Temp Dewpoint Dewpoint Depression Visibility Wind Speed Wind Dir Waves Ship Positions

Al Wafae

Last reported at 2018-Jan-04 22:36 UTC. Time now 2018-Feb-18 01:15 UTC.
Position N 24°25' W 015°43'.
Warning: this ship's position is 44 days out of date.

Length 55 m; draft 5.5 m.

Type: Fishing. MMSI: 242135100.

Date/timePositionNaut miles runAvg speedWind from/ knotsBaromVisibWave heightAir tempDewpointWater temp
2018-Jan-04 22:36N 24°25' W 015°43'0 4.8
2018-Jan-04 22:30N 24°25' W 015°43'3 6.7
2018-Jan-04 21:59N 24°21' W 015°44'1 2.5
2018-Jan-04 21:25N 24°20' W 015°44'18 4.5
2018-Jan-04 17:32N 24°32' W 015°30'4 4.9
2018-Jan-04 16:44N 24°35' W 015°27'1 5.0
2018-Jan-04 16:30N 24°36' W 015°27'1 1.9
2018-Jan-04 15:59N 24°37' W 015°28'65 5.1
2018-Jan-04 03:10N 23°40' W 016°03'53 1.3
2018-Jan-02 10:12N 24°28' W 015°39'2 4.3
2018-Jan-02 09:46N 24°27' W 015°40'2 0.4
2018-Jan-02 04:27N 24°25' W 015°40'1 2.7
2018-Jan-02 03:57N 24°26' W 015°40'  

Dump ship's entire track history